Time;durP1;ratioP1;P1;durP2;ratioP2;P2;SDS_P1;SDS_P2;PMS_P1;PMS_P2;Temp;Humidity;BMP_temperature;BMP_pressure;BME280_temperature;BME280_humidity;BME280_pressure;Samples;Min_cycle;Max_cycle;Signal;HPM_P1;HPM_P2
2023/07/01 00:01:30;;;;;;;6.17;4.20;;;14.50;35.20;;;;;;5009738;28;20723;-50
2023/07/01 00:03:57;;;;;;;5.87;3.53;;;14.40;34.00;;;;;;5008856;28;20544;-50
2023/07/01 00:06:24;;;;;;;7.60;4.10;;;14.40;34.80;;;;;;5013306;28;20942;-50
2023/07/01 00:08:51;;;;;;;5.13;3.50;;;14.40;33.00;;;;;;5005371;28;21000;-50
2023/07/01 00:11:17;;;;;;;5.63;3.73;;;14.40;32.60;;;;;;5012602;28;20491;-52
2023/07/01 00:13:44;;;;;;;5.00;3.70;;;14.40;33.20;;;;;;5029066;28;20510;-52
2023/07/01 00:16:13;;;;;;;4.33;3.90;;;14.40;34.30;;;;;;5026847;28;20876;-51
2023/07/01 00:18:40;;;;;;;20.17;3.50;;;14.40;34.90;;;;;;5018195;28;20455;-51
2023/07/01 00:21:08;;;;;;;5.20;3.70;;;14.40;34.70;;;;;;5020529;28;20464;-51
2023/07/01 00:23:35;;;;;;;6.70;3.00;;;14.30;34.60;;;;;;5028485;28;20988;-52
2023/07/01 00:26:02;;;;;;;4.33;3.10;;;14.40;34.60;;;;;;5025477;28;20486;-51
2023/07/01 00:28:29;;;;;;;4.90;3.40;;;14.40;36.00;;;;;;5020560;28;20487;-53
2023/07/01 00:30:55;;;;;;;6.93;3.33;;;14.40;35.60;;;;;;5013486;28;20987;-51
2023/07/01 00:33:22;;;;;;;12.00;3.43;;;14.40;36.10;;;;;;5010756;28;20523;-50
2023/07/01 00:35:49;;;;;;;10.53;4.10;;;14.40;35.80;;;;;;5007375;28;20499;-50
2023/07/01 00:38:16;;;;;;;11.33;3.67;;;14.40;36.10;;;;;;5018681;28;20546;-51
2023/07/01 00:40:43;;;;;;;11.70;3.67;;;14.50;36.60;;;;;;5011320;28;20927;-51
2023/07/01 00:43:10;;;;;;;4.10;3.20;;;14.50;38.10;;;;;;5014688;28;20858;-51
2023/07/01 00:45:36;;;;;;;4.70;3.20;;;14.50;37.90;;;;;;5013687;28;20965;-52
2023/07/01 00:48:03;;;;;;;7.40;3.03;;;14.50;37.90;;;;;;5008701;28;20586;-50
2023/07/01 00:50:31;;;;;;;6.90;3.40;;;14.60;39.00;;;;;;5005809;28;20496;-51
2023/07/01 00:52:58;;;;;;;3.90;3.60;;;14.60;38.70;;;;;;5010393;28;20472;-51
2023/07/01 00:55:26;;;;;;;4.40;3.00;;;14.60;38.90;;;;;;5010159;28;21008;-52
2023/07/01 00:57:52;;;;;;;11.60;3.83;;;14.60;39.20;;;;;;5007797;28;20494;-52
2023/07/01 01:00:19;;;;;;;11.30;3.50;;;14.70;39.00;;;;;;5015623;28;20565;-51
2023/07/01 01:02:54;;;;;;;3.33;3.13;;;14.70;37.40;;;;;;5011588;28;20467;-50
2023/07/01 01:05:26;;;;;;;4.00;3.50;;;14.70;38.40;;;;;;5013074;28;20459;-51
2023/07/01 01:08:00;;;;;;;6.03;3.50;;;14.70;38.20;;;;;;5007750;28;20578;-51
2023/07/01 01:10:29;;;;;;;5.47;3.53;;;14.80;38.90;;;;;;5011833;28;20978;-51
2023/07/01 01:12:58;;;;;;;6.20;2.93;;;14.80;39.50;;;;;;5009209;28;20567;-51
2023/07/01 01:15:25;;;;;;;13.70;4.03;;;14.80;39.10;;;;;;5013398;28;20555;-51
2023/07/01 01:17:54;;;;;;;8.67;4.13;;;14.90;39.40;;;;;;5014645;28;20487;-50
2023/07/01 01:20:22;;;;;;;13.03;3.37;;;14.90;40.30;;;;;;5010159;28;20558;-51
2023/07/01 01:22:56;;;;;;;10.93;3.50;;;14.90;39.60;;;;;;5012630;28;20491;-51
2023/07/01 01:25:29;;;;;;;8.30;3.40;;;14.90;39.90;;;;;;5013387;28;20463;-50
2023/07/01 01:27:58;;;;;;;14.43;3.77;;;14.90;39.50;;;;;;5013855;28;20570;-51
2023/07/01 01:30:29;;;;;;;7.33;2.93;;;14.90;39.60;;;;;;5010098;28;20498;-50
2023/07/01 01:32:56;;;;;;;8.70;3.20;;;14.90;38.50;;;;;;5013063;28;20567;-51
2023/07/01 01:35:23;;;;;;;12.70;3.40;;;14.90;37.80;;;;;;5009838;28;20484;-50
2023/07/01 01:37:55;;;;;;;3.60;3.23;;;14.90;36.70;;;;;;5011494;28;20554;-51
2023/07/01 01:40:26;;;;;;;4.73;3.57;;;14.90;37.80;;;;;;5007543;28;20536;-50
2023/07/01 01:43:00;;;;;;;14.27;3.80;;;14.90;36.80;;;;;;5010753;28;20491;-50
2023/07/01 01:45:27;;;;;;;8.33;3.93;;;14.90;37.40;;;;;;5009677;28;20541;-51
2023/07/01 01:47:54;;;;;;;10.83;3.37;;;14.90;37.80;;;;;;5009092;28;20574;-50
2023/07/01 01:50:22;;;;;;;5.67;3.17;;;14.90;38.30;;;;;;5012415;28;20503;-51
2023/07/01 01:52:50;;;;;;;7.47;3.83;;;14.90;38.90;;;;;;5014062;28;20555;-51
2023/07/01 01:55:20;;;;;;;3.97;3.67;;;15.00;40.00;;;;;;5012565;28;20835;-51
2023/07/01 01:57:46;;;;;;;7.20;3.60;;;15.00;39.70;;;;;;5010299;28;20504;-51
2023/07/01 02:00:15;;;;;;;6.43;4.00;;;15.00;39.40;;;;;;5010105;28;20554;-52
2023/07/01 02:02:41;;;;;;;6.27;3.00;;;14.90;39.30;;;;;;5011072;28;20903;-51
2023/07/01 02:05:08;;;;;;;11.80;3.87;;;14.90;39.50;;;;;;5010493;28;20570;-52
2023/07/01 02:07:35;;;;;;;5.90;3.73;;;14.90;39.10;;;;;;5009083;28;20510;-50
2023/07/01 02:10:02;;;;;;;10.07;3.50;;;15.00;39.90;;;;;;5011309;28;20460;-51
2023/07/01 02:12:30;;;;;;;15.87;3.87;;;15.00;40.30;;;;;;5012721;28;20513;-50
2023/07/01 02:14:56;;;;;;;2.97;2.67;;;15.00;40.40;;;;;;5010167;28;20569;-50
2023/07/01 02:17:24;;;;;;;10.40;3.47;;;15.00;41.10;;;;;;5009983;28;20542;-51
2023/07/01 02:19:51;;;;;;;13.03;3.37;;;15.00;39.80;;;;;;5009444;28;20491;-52
2023/07/01 02:22:17;;;;;;;10.97;3.23;;;15.00;39.90;;;;;;5007792;28;20551;-51
2023/07/01 02:24:44;;;;;;;7.07;3.70;;;15.00;39.70;;;;;;5011381;28;20545;-50
2023/07/01 02:27:10;;;;;;;5.03;3.37;;;15.00;40.20;;;;;;5009278;28;20566;-51
2023/07/01 02:29:37;;;;;;;11.33;3.70;;;15.00;40.00;;;;;;5010171;28;20488;-50
2023/07/01 02:32:04;;;;;;;4.67;4.00;;;15.00;39.90;;;;;;5004604;28;20495;-51
2023/07/01 02:34:32;;;;;;;7.70;3.23;;;15.10;40.20;;;;;;5009290;28;21001;-51
2023/07/01 02:36:59;;;;;;;8.53;3.60;;;15.10;38.40;;;;;;5012420;28;20506;-51
2023/07/01 02:39:25;;;;;;;11.07;4.13;;;15.00;38.50;;;;;;5013042;28;20517;-51
2023/07/01 02:41:52;;;;;;;7.63;3.80;;;15.00;38.10;;;;;;5012135;28;20556;-51
2023/07/01 02:44:19;;;;;;;7.60;4.00;;;15.00;38.20;;;;;;5011984;28;20898;-50
2023/07/01 02:46:45;;;;;;;7.70;3.50;;;15.10;39.30;;;;;;5008457;28;20548;-52
2023/07/01 02:49:12;;;;;;;15.37;4.00;;;15.10;39.90;;;;;;5012292;28;20579;-51
2023/07/01 02:51:41;;;;;;;8.70;3.73;;;15.10;40.20;;;;;;5026164;28;21004;-51
2023/07/01 02:54:07;;;;;;;10.37;3.40;;;15.10;40.00;;;;;;5014924;28;20534;-51
2023/07/01 02:56:34;;;;;;;5.00;3.80;;;15.10;41.40;;;;;;5014142;28;20496;-50
2023/07/01 02:59:00;;;;;;;10.70;3.53;;;15.10;40.40;;;;;;5007906;28;20564;-50
2023/07/01 03:01:27;;;;;;;6.17;3.73;;;15.10;40.10;;;;;;5019051;28;20487;-50
2023/07/01 03:03:53;;;;;;;13.53;4.53;;;15.10;39.10;;;;;;5011462;28;20519;-50
2023/07/01 03:06:20;;;;;;;6.80;3.80;;;15.10;38.40;;;;;;5020549;28;20460;-50
2023/07/01 03:08:48;;;;;;;8.63;3.50;;;15.10;38.00;;;;;;5009501;28;20519;-50
2023/07/01 03:11:14;;;;;;;19.27;3.57;;;15.10;38.90;;;;;;5011730;28;20534;-51
2023/07/01 03:13:42;;;;;;;13.00;4.50;;;15.10;39.30;;;;;;5009552;28;20495;-51
2023/07/01 03:16:09;;;;;;;5.40;3.70;;;15.10;39.40;;;;;;5013237;28;20487;-50
2023/07/01 03:18:36;;;;;;;3.70;3.40;;;15.20;40.20;;;;;;5009754;28;20464;-51
2023/07/01 03:21:02;;;;;;;4.33;4.03;;;15.20;41.40;;;;;;5011195;28;20549;-50
2023/07/01 03:23:29;;;;;;;7.50;4.47;;;15.20;41.40;;;;;;5016175;28;20482;-51
2023/07/01 03:25:57;;;;;;;6.10;5.60;;;15.20;41.40;;;;;;5015464;28;20464;-51
2023/07/01 03:28:23;;;;;;;7.23;4.23;;;15.30;42.00;;;;;;5016567;28;20479;-51
2023/07/01 03:30:50;;;;;;;5.63;5.07;;;15.30;41.40;;;;;;5011790;28;20495;-50
2023/07/01 03:33:17;;;;;;;6.60;4.40;;;15.30;41.40;;;;;;5009596;28;20476;-50
2023/07/01 03:35:44;;;;;;;15.20;4.80;;;15.30;41.40;;;;;;5007049;28;20489;-50
2023/07/01 03:38:10;;;;;;;14.83;5.03;;;15.30;40.50;;;;;;5019333;28;20455;-50
2023/07/01 03:40:37;;;;;;;6.57;4.83;;;15.30;40.80;;;;;;5019386;28;20550;-49
2023/07/01 03:43:05;;;;;;;9.30;4.47;;;15.30;40.80;;;;;;5011949;28;20862;-50
2023/07/01 03:45:31;;;;;;;10.33;5.33;;;15.30;40.70;;;;;;5009834;28;20555;-51
2023/07/01 03:47:58;;;;;;;6.30;5.67;;;15.30;40.60;;;;;;5009592;28;20578;-51
2023/07/01 03:50:25;;;;;;;6.73;5.70;;;15.30;39.80;;;;;;5004568;28;20467;-52
2023/07/01 03:52:51;;;;;;;6.33;5.33;;;15.40;39.60;;;;;;5008503;28;20464;-51
2023/07/01 03:55:18;;;;;;;6.80;5.63;;;15.40;39.20;;;;;;5017607;28;20493;-51
2023/07/01 03:57:44;;;;;;;7.20;5.77;;;15.40;39.30;;;;;;5015524;28;20499;-50
2023/07/01 04:00:17;;;;;;;5.27;4.87;;;15.40;40.10;;;;;;5006413;28;20546;-51
2023/07/01 04:02:44;;;;;;;5.70;5.17;;;15.50;39.90;;;;;;5007105;28;20466;-51
2023/07/01 04:05:11;;;;;;;6.17;5.67;;;15.50;40.20;;;;;;5008332;28;20569;-52
2023/07/01 04:07:38;;;;;;;8.20;6.53;;;15.60;40.00;;;;;;5005266;28;20562;-53
2023/07/01 04:10:05;;;;;;;6.67;6.10;;;15.60;39.70;;;;;;5007261;28;20491;-54
2023/07/01 04:12:32;;;;;;;10.83;6.70;;;15.60;39.70;;;;;;5005844;28;20554;-57
2023/07/01 04:14:59;;;;;;;16.60;6.33;;;15.70;39.50;;;;;;5010444;28;20557;-57
2023/07/01 04:17:27;;;;;;;8.87;7.07;;;15.70;39.80;;;;;;5008224;28;20679;-57
2023/07/01 04:19:54;;;;;;;19.17;6.73;;;15.70;40.10;;;;;;5009098;28;20467;-58
2023/07/01 04:22:21;;;;;;;7.57;6.87;;;15.80;39.90;;;;;;5007193;28;20594;-57
2023/07/01 04:24:47;;;;;;;12.60;6.47;;;15.80;40.00;;;;;;5010787;28;20511;-58
2023/07/01 04:27:14;;;;;;;17.10;6.47;;;15.80;39.60;;;;;;5010506;28;20485;-57
2023/07/01 04:29:40;;;;;;;8.10;6.87;;;15.80;39.20;;;;;;5008574;28;20534;-57
2023/07/01 04:32:07;;;;;;;8.73;6.40;;;15.90;38.80;;;;;;5010310;28;20492;-57
2023/07/01 04:34:36;;;;;;;10.87;6.07;;;15.90;38.00;;;;;;5010624;28;21080;-58
2023/07/01 04:37:03;;;;;;;7.57;6.83;;;15.90;35.60;;;;;;5009797;28;20491;-58
2023/07/01 04:39:30;;;;;;;9.50;7.10;;;15.90;36.10;;;;;;5014819;28;20494;-56
2023/07/01 04:41:57;;;;;;;11.93;6.50;;;16.00;35.30;;;;;;5010035;28;20546;-58
2023/07/01 04:44:24;;;;;;;6.90;6.20;;;16.00;32.90;;;;;;5004966;28;20518;-56
2023/07/01 04:46:51;;;;;;;9.20;6.67;;;16.00;32.00;;;;;;5013451;28;20957;-57
2023/07/01 04:49:17;;;;;;;10.60;7.00;;;16.00;28.10;;;;;;5017728;28;20574;-57
2023/07/01 04:51:45;;;;;;;11.23;6.90;;;16.00;27.20;;;;;;5010639;28;20558;-56
2023/07/01 04:54:11;;;;;;;10.50;7.00;;;16.00;25.40;;;;;;5007236;28;20518;-58
2023/07/01 04:56:38;;;;;;;10.50;6.27;;;16.00;24.20;;;;;;5011187;28;20499;-58
2023/07/01 04:59:05;;;;;;;10.13;7.20;;;16.00;22.40;;;;;;5007793;28;20488;-57
2023/07/01 05:01:31;;;;;;;7.40;6.50;;;16.00;20.50;;;;;;5011008;28;20918;-58
2023/07/01 05:03:58;;;;;;;9.03;6.70;;;16.00;20.00;;;;;;5022058;28;20525;-57
2023/07/01 05:06:25;;;;;;;15.40;7.53;;;16.00;75.00;;;;;;5008702;28;20546;-57
2023/07/01 05:08:53;;;;;;;11.17;6.87;;;15.90;75.60;;;;;;5013428;28;20578;-58
2023/07/01 05:11:19;;;;;;;13.60;7.80;;;16.00;77.70;;;;;;5010938;28;21051;-57
2023/07/01 05:13:46;;;;;;;13.50;7.30;;;16.00;21.00;;;;;;5013701;28;20483;-56
2023/07/01 05:16:13;;;;;;;8.90;6.43;;;15.90;24.80;;;;;;5009661;28;20509;-58
2023/07/01 05:18:39;;;;;;;7.60;6.83;;;15.90;28.20;;;;;;5013565;28;20546;-57
2023/07/01 05:21:06;;;;;;;7.03;6.40;;;16.00;29.20;;;;;;5014704;28;20491;-56
2023/07/01 05:23:32;;;;;;;13.70;6.97;;;16.00;29.10;;;;;;5011901;28;20500;-57
2023/07/01 05:26:00;;;;;;;11.90;6.87;;;16.10;36.00;;;;;;5014610;28;20467;-57
2023/07/01 05:28:27;;;;;;;15.90;5.57;;;16.10;35.70;;;;;;5014259;28;20519;-58
2023/07/01 05:30:53;;;;;;;13.10;6.70;;;16.20;39.90;;;;;;5013902;28;20467;-57
2023/07/01 05:33:20;;;;;;;7.67;6.07;;;16.20;49.60;;;;;;5022448;28;20558;-58
2023/07/01 05:35:46;;;;;;;9.67;5.97;;;16.30;55.60;;;;;;5019436;28;20992;-56
2023/07/01 05:38:14;;;;;;;14.43;6.80;;;16.30;56.60;;;;;;5013868;28;20551;-58
2023/07/01 05:40:40;;;;;;;19.93;7.27;;;16.40;86.30;;;;;;5012952;28;20550;-58
2023/07/01 05:43:08;;;;;;;11.63;7.50;;;16.40;79.10;;;;;;5013083;28;20491;-57
2023/07/01 05:45:35;;;;;;;14.30;8.00;;;16.50;82.20;;;;;;5012610;28;20820;-57
2023/07/01 05:48:02;;;;;;;14.13;7.70;;;16.50;81.50;;;;;;5012649;28;20491;-57
2023/07/01 05:50:28;;;;;;;11.87;7.03;;;16.50;99.90;;;;;;5012262;28;20559;-57
2023/07/01 05:52:55;;;;;;;9.13;7.33;;;16.60;99.90;;;;;;5010792;28;20498;-57
2023/07/01 05:55:21;;;;;;;11.07;6.33;;;16.60;99.90;;;;;;5013289;28;20493;-58
2023/07/01 05:57:48;;;;;;;8.57;6.40;;;16.70;99.90;;;;;;5010875;28;21020;-57
2023/07/01 06:00:16;;;;;;;8.70;6.27;;;16.80;99.90;;;;;;5008866;28;21049;-57
2023/07/01 06:02:43;;;;;;;13.10;7.53;;;16.80;99.90;;;;;;5011136;28;20491;-59
2023/07/01 06:05:10;;;;;;;14.53;7.33;;;16.90;99.90;;;;;;5008551;28;21214;-59
2023/07/01 06:07:36;;;;;;;17.97;8.07;;;16.90;99.90;;;;;;5012112;28;20494;-58
2023/07/01 06:10:03;;;;;;;16.67;8.20;;;17.00;99.90;;;;;;5011799;28;20578;-59
2023/07/01 06:12:30;;;;;;;13.83;7.10;;;17.10;99.90;;;;;;5013620;28;20499;-58
2023/07/01 06:14:56;;;;;;;20.53;6.80;;;17.20;99.90;;;;;;5009888;28;20599;-61
2023/07/01 06:17:25;;;;;;;9.63;6.57;;;17.20;99.90;;;;;;5009214;28;20492;-58
2023/07/01 06:19:52;;;;;;;8.20;6.03;;;17.30;99.90;;;;;;5009239;28;20553;-59
2023/07/01 06:22:18;;;;;;;11.10;5.43;;;17.40;99.90;;;;;;5015608;28;20506;-59
2023/07/01 06:24:45;;;;;;;7.97;5.70;;;17.40;99.90;;;;;;5019583;28;20606;-59
2023/07/01 06:27:11;;;;;;;9.53;5.30;;;17.50;99.90;;;;;;5012321;28;20543;-60
2023/07/01 06:29:38;;;;;;;9.37;6.33;;;17.60;99.90;;;;;;5010497;28;20578;-60
2023/07/01 06:32:05;;;;;;;10.53;5.47;;;17.60;99.90;;;;;;5013807;28;24109;-59
2023/07/01 06:34:33;;;;;;;9.43;5.63;;;17.70;99.90;;;;;;5019318;28;20514;-59
2023/07/01 06:37:00;;;;;;;12.00;6.37;;;17.70;99.90;;;;;;5015596;28;20470;-59
2023/07/01 06:39:26;;;;;;;14.90;6.13;;;17.80;99.90;;;;;;5011189;28;20547;-58
2023/07/01 06:41:53;;;;;;;12.00;5.73;;;17.90;99.90;;;;;;5011075;28;20495;-60
2023/07/01 06:44:20;;;;;;;9.97;5.30;;;18.00;99.90;;;;;;5011528;28;21013;-59
2023/07/01 06:46:46;;;;;;;10.40;5.10;;;18.10;99.90;;;;;;5005387;28;20456;-58
2023/07/01 06:49:13;;;;;;;14.83;5.80;;;18.10;99.90;;;;;;5005649;28;20507;-59
2023/07/01 06:51:42;;;;;;;12.07;4.97;;;18.20;35.40;;;;;;5012528;28;20880;-61
2023/07/01 06:54:10;;;;;;;12.40;4.73;;;18.20;25.20;;;;;;5010765;28;20479;-58
2023/07/01 06:56:36;;;;;;;5.17;4.27;;;18.30;22.80;;;;;;5008385;28;20492;-59
2023/07/01 06:59:03;;;;;;;7.97;4.30;;;18.30;37.70;;;;;;5011295;28;20546;-58
2023/07/01 07:01:30;;;;;;;5.00;4.10;;;18.30;27.40;;;;;;5014050;28;20499;-58
2023/07/01 07:03:57;;;;;;;8.40;4.77;;;18.40;46.70;;;;;;5006628;28;20926;-60
2023/07/01 07:06:23;;;;;;;6.53;4.20;;;18.40;57.70;;;;;;5014036;28;21020;-59
2023/07/01 07:08:51;;;;;;;9.07;4.70;;;18.50;56.30;;;;;;5009833;28;20511;-60
2023/07/01 07:11:18;;;;;;;12.93;4.50;;;18.50;53.50;;;;;;5014537;28;20466;-60
2023/07/01 07:13:44;;;;;;;6.63;4.47;;;18.50;46.20;;;;;;5010926;28;20522;-58
2023/07/01 07:16:11;;;;;;;10.20;5.23;;;18.60;49.50;;;;;;5010421;28;20495;-60
2023/07/01 07:18:37;;;;;;;9.37;5.20;;;18.70;70.40;;;;;;5014552;28;20510;-58
2023/07/01 07:21:04;;;;;;;8.40;4.40;;;18.70;91.20;;;;;;5005670;28;20550;-59
2023/07/01 07:23:31;;;;;;;4.73;4.10;;;18.80;80.80;;;;;;5004783;28;20575;-59
2023/07/01 07:25:59;;;;;;;5.27;3.00;;;18.80;71.20;;;;;;4994277;28;20547;-60
2023/07/01 07:28:25;;;;;;;5.97;4.00;;;19.00;81.40;;;;;;4991382;28;20555;-59
2023/07/01 07:30:52;;;;;;;5.10;3.60;;;19.00;98.50;;;;;;4999599;28;20460;-59
2023/07/01 07:33:19;;;;;;;13.00;3.80;;;19.10;99.90;;;;;;5020106;28;20518;-60
2023/07/01 07:35:45;;;;;;;7.63;4.20;;;19.10;91.80;;;;;;5009246;28;20514;-61
2023/07/01 07:38:12;;;;;;;9.70;4.03;;;19.20;92.00;;;;;;5003295;28;20484;-59
2023/07/01 07:40:38;;;;;;;5.40;3.50;;;19.30;99.90;;;;;;5011438;28;21056;-58
2023/07/01 07:43:10;;;;;;;3.33;3.03;;;19.40;99.90;;;;;;5002894;28;20555;-58
2023/07/01 07:45:37;;;;;;;15.37;3.60;;;19.40;99.90;;;;;;5024131;28;20542;-59
2023/07/01 07:48:05;;;;;;;6.87;3.30;;;19.50;99.90;;;;;;5008539;28;20606;-58
2023/07/01 07:50:31;;;;;;;4.27;2.53;;;19.50;99.90;;;;;;5008421;28;21022;-57
2023/07/01 07:52:58;;;;;;;4.60;2.50;;;19.50;75.10;;;;;;5007574;28;20495;-58
2023/07/01 07:55:25;;;;;;;4.60;2.70;;;19.60;99.90;;;;;;5003727;28;20483;-58
2023/07/01 07:57:52;;;;;;;4.50;2.63;;;19.70;99.90;;;;;;5010208;28;20470;-58
2023/07/01 08:00:20;;;;;;;13.33;2.10;;;19.80;99.90;;;;;;5008585;28;20461;-58
2023/07/01 08:02:47;;;;;;;8.40;3.20;;;19.80;41.90;;;;;;5008385;28;20503;-57
2023/07/01 08:05:16;;;;;;;4.57;2.60;;;19.90;75.40;;;;;;5008302;28;20510;-58
2023/07/01 08:07:43;;;;;;;7.10;2.67;;;20.10;99.90;;;;;;5011942;28;20443;-58
2023/07/01 08:10:10;;;;;;;5.60;2.63;;;20.10;99.90;;;;;;5009440;28;20945;-58
2023/07/01 08:12:37;;;;;;;5.50;3.03;;;20.20;99.90;;;;;;5008911;28;21068;-57
2023/07/01 08:15:04;;;;;;;6.43;2.30;;;20.20;99.90;;;;;;5007309;28;20992;-58
2023/07/01 08:17:32;;;;;;;13.10;2.20;;;20.30;99.90;;;;;;5010395;28;20495;-57
2023/07/01 08:19:58;;;;;;;6.43;1.80;;;20.40;99.90;;;;;;5009528;28;21032;-58
2023/07/01 08:22:25;;;;;;;3.17;1.60;;;20.40;99.90;;;;;;5023340;28;20466;-57
2023/07/01 08:24:51;;;;;;;4.90;1.80;;;20.50;99.90;;;;;;5022260;28;20550;-57
2023/07/01 08:27:18;;;;;;;5.53;2.13;;;20.50;99.90;;;;;;5014906;28;20502;-58
2023/07/01 08:29:45;;;;;;;8.90;1.80;;;20.60;99.90;;;;;;5015372;28;20486;-57
2023/07/01 08:32:11;;;;;;;16.70;2.17;;;20.60;99.90;;;;;;5008218;28;20460;-60
2023/07/01 08:34:39;;;;;;;2.30;1.60;;;20.80;99.90;;;;;;5014939;28;20562;-58
2023/07/01 08:37:06;;;;;;;5.60;2.33;;;20.80;99.90;;;;;;5010626;28;20473;-58
2023/07/01 08:39:33;;;;;;;4.10;2.23;;;20.90;99.90;;;;;;5005782;28;20544;-59
2023/07/01 08:42:04;;;;;;;4.80;1.97;;;20.90;99.90;;;;;;5009953;28;20909;-58
2023/07/01 08:44:31;;;;;;;4.67;1.80;;;20.90;99.90;;;;;;5012588;28;20578;-57
2023/07/01 08:47:00;;;;;;;3.27;1.77;;;20.90;99.90;;;;;;5015151;28;20476;-58
2023/07/01 08:49:29;;;;;;;4.93;2.07;;;21.00;99.90;;;;;;5015233;28;20488;-58
2023/07/01 08:52:05;;;;;;;2.70;1.50;;;21.00;99.90;;;;;;5005507;28;20469;-58
2023/07/01 08:54:33;;;;;;;3.57;2.00;;;21.20;99.90;;;;;;5013866;28;20484;-57
2023/07/01 08:57:00;;;;;;;3.37;2.10;;;21.30;99.90;;;;;;5023753;28;20441;-58
2023/07/01 08:59:27;;;;;;;4.40;1.80;;;21.30;99.90;;;;;;5017545;28;20447;-58
2023/07/01 09:01:55;;;;;;;6.10;2.30;;;21.40;99.90;;;;;;5015460;28;20443;-57
2023/07/01 09:04:21;;;;;;;6.63;2.73;;;21.50;99.90;;;;;;5012859;28;20908;-57
2023/07/01 09:06:48;;;;;;;3.23;2.10;;;21.50;99.90;;;;;;5012522;28;20538;-58
2023/07/01 09:09:16;;;;;;;3.43;1.80;;;21.60;99.90;;;;;;5014197;28;20513;-59
2023/07/01 09:11:42;;;;;;;3.70;1.97;;;21.70;99.90;;;;;;5023533;28;20492;-57
2023/07/01 09:14:09;;;;;;;2.33;1.53;;;21.90;99.90;;;;;;5026070;28;20565;-58
2023/07/01 09:16:37;;;;;;;4.10;1.90;;;22.00;99.90;;;;;;5013411;28;20491;-58
2023/07/01 09:19:08;;;;;;;3.87;1.80;;;22.20;99.90;;;;;;5009775;28;20470;-57
2023/07/01 09:21:35;;;;;;;5.90;2.13;;;22.40;99.90;;;;;;5007485;28;20463;-57
2023/07/01 09:24:02;;;;;;;3.63;2.10;;;22.40;99.90;;;;;;5008321;28;20494;-58
2023/07/01 09:26:31;;;;;;;11.10;2.43;;;22.40;99.90;;;;;;5006483;28;20925;-58
2023/07/01 09:28:58;;;;;;;13.13;1.70;;;22.40;99.90;;;;;;5002147;28;20452;-58
2023/07/01 09:31:25;;;;;;;3.80;1.83;;;22.40;99.90;;;;;;5028495;28;20929;-58
2023/07/01 09:34:01;;;;;;;3.03;2.20;;;22.60;99.90;;;;;;5014372;28;20491;-58
2023/07/01 09:36:28;;;;;;;8.03;2.40;;;22.80;99.90;;;;;;5015037;28;20464;-58
2023/07/01 09:38:55;;;;;;;2.30;1.57;;;23.10;99.90;;;;;;5012947;28;20876;-58
2023/07/01 09:41:26;;;;;;;3.00;2.10;;;23.40;99.90;;;;;;5024745;28;20964;-59
2023/07/01 09:43:56;;;;;;;3.63;1.70;;;23.50;99.90;;;;;;5014931;28;20475;-58
2023/07/01 09:46:23;;;;;;;14.33;2.20;;;23.50;99.90;;;;;;5014183;28;20494;-58
2023/07/01 09:48:52;;;;;;;3.03;2.10;;;23.40;99.90;;;;;;5013539;28;20487;-58
2023/07/01 09:51:19;;;;;;;24.73;2.43;;;23.50;99.90;;;;;;5003377;28;20501;-58
2023/07/01 09:53:46;;;;;;;3.20;2.20;;;23.30;99.90;;;;;;5002350;28;20583;-58
2023/07/01 09:56:15;;;;;;;2.90;1.97;;;23.50;99.90;;;;;;5007127;28;21239;-59
2023/07/01 09:58:43;;;;;;;3.77;1.80;;;23.50;99.90;;;;;;5013033;28;20539;-58
2023/07/01 10:01:12;;;;;;;7.80;2.33;;;23.60;99.90;;;;;;5012691;28;21012;-59
2023/07/01 10:03:38;;;;;;;4.23;2.07;;;23.70;99.90;;;;;;5011701;28;20495;-59
2023/07/01 10:06:06;;;;;;;8.73;2.20;;;23.70;99.90;;;;;;5012396;28;20498;-58
2023/07/01 10:08:33;;;;;;;5.13;2.27;;;23.60;99.90;;;;;;5008571;28;20463;-58
2023/07/01 10:11:04;;;;;;;6.83;1.43;;;23.50;99.90;;;;;;5008601;28;20491;-58
2023/07/01 10:13:37;;;;;;;21.50;2.17;;;23.60;99.90;;;;;;5004107;28;20526;-58
2023/07/01 10:16:06;;;;;;;2.73;1.93;;;23.70;99.90;;;;;;5012478;28;20452;-59
2023/07/01 10:18:34;;;;;;;4.70;1.73;;;23.50;99.90;;;;;;5028512;23;20526;-53
2023/07/01 10:21:27;;;;;;;11.30;2.00;;;23.70;99.90;;;;;;5026777;28;20435;-52
2023/07/01 10:23:55;;;;;;;2.00;1.90;;;23.50;99.90;;;;;;5031994;28;20805;-53
2023/07/01 10:26:37;;;;;;;3.20;2.13;;;23.50;99.90;;;;;;5031768;28;20556;-52
2023/07/01 10:29:54;;;;;;;3.37;1.90;;;23.10;99.90;;;;;;5030320;28;20486;-52
2023/07/01 10:32:31;;;;;;;9.93;2.00;;;23.70;99.90;;;;;;5029119;28;20516;-52
2023/07/01 10:35:15;;;;;;;7.00;1.67;;;23.90;99.90;;;;;;5029173;28;20459;-51
2023/07/01 10:37:43;;;;;;;6.20;2.07;;;23.90;99.90;;;;;;5030048;28;20481;-52
2023/07/01 10:40:42;;;;;;;38.60;2.50;;;24.10;99.90;;;;;;5025645;28;20494;-53
2023/07/01 10:43:29;;;;;;;4.67;2.07;;;24.10;99.90;;;;;;5024292;28;20487;-53
2023/07/01 10:46:13;;;;;;;4.23;2.07;;;24.30;99.90;;;;;;5025077;28;20462;-52
2023/07/01 10:48:41;;;;;;;7.80;1.57;;;24.60;99.90;;;;;;5025861;28;20907;-52
2023/07/01 10:51:09;;;;;;;8.40;2.17;;;24.40;99.90;;;;;;5026803;28;20482;-53
2023/07/01 10:54:02;;;;;;;7.60;1.53;;;24.50;99.90;;;;;;5020158;28;20606;-52
2023/07/01 10:56:30;;;;;;;12.40;2.87;;;24.50;99.90;;;;;;5025918;28;20471;-51
2023/07/01 10:59:19;;;;;;;7.90;1.80;;;24.60;99.90;;;;;;5030255;28;20482;-53
2023/07/01 11:01:47;;;;;;;8.80;2.10;;;24.40;99.90;;;;;;5019837;28;20458;-52
2023/07/01 11:04:14;;;;;;;4.90;1.90;;;24.50;99.90;;;;;;5022144;28;20560;-53
2023/07/01 11:06:50;;;;;;;8.33;2.03;;;24.60;99.90;;;;;;5022795;28;20490;-51
2023/07/01 11:09:28;;;;;;;7.20;2.00;;;24.10;99.90;;;;;;5019937;28;20509;-53
2023/07/01 11:11:55;;;;;;;3.23;1.83;;;24.10;99.90;;;;;;5018537;28;20501;-52
2023/07/01 11:14:30;;;;;;;2.30;2.00;;;24.10;99.90;;;;;;5028366;28;20920;-52
2023/07/01 11:17:06;;;;;;;8.73;2.33;;;24.10;99.90;;;;;;5029180;28;20536;-52
2023/07/01 11:19:33;;;;;;;9.83;2.50;;;24.10;99.90;;;;;;5026693;28;21121;-52
2023/07/01 11:22:01;;;;;;;6.63;2.03;;;24.40;99.90;;;;;;5024707;28;20598;-51
2023/07/01 11:24:29;;;;;;;6.67;2.13;;;24.70;99.90;;;;;;5020288;28;20467;-51
2023/07/01 11:27:01;;;;;;;5.40;2.20;;;24.50;99.90;;;;;;5017966;28;20465;-51
2023/07/01 11:29:28;;;;;;;6.00;2.23;;;25.00;99.90;;;;;;5011583;28;20514;-50
2023/07/01 11:31:57;;;;;;;8.90;2.13;;;24.90;99.90;;;;;;5022634;28;20581;-51
2023/07/01 11:34:24;;;;;;;7.40;1.87;;;24.90;99.90;;;;;;5027775;28;20508;-52
2023/07/01 11:36:50;;;;;;;3.63;2.37;;;25.10;99.90;;;;;;5027325;28;20486;-51
2023/07/01 11:39:19;;;;;;;1.97;1.77;;;25.00;99.90;;;;;;5029204;28;20545;-51
2023/07/01 11:41:49;;;;;;;3.07;1.90;;;25.00;99.90;;;;;;5030682;28;20494;-52
2023/07/01 11:44:17;;;;;;;4.57;2.33;;;24.90;99.90;;;;;;5030752;28;20486;-50
2023/07/01 11:46:46;;;;;;;5.83;2.10;;;24.80;99.90;;;;;;5031090;28;20520;-49
2023/07/01 11:49:14;;;;;;;7.83;2.63;;;24.50;99.90;;;;;;5031917;28;20467;-50
2023/07/01 11:51:42;;;;;;;4.87;3.00;;;24.10;99.90;;;;;;5031697;28;20581;-56
2023/07/01 11:54:09;;;;;;;3.40;1.90;;;23.90;99.90;;;;;;5025525;28;20513;-54
2023/07/01 11:56:37;;;;;;;13.20;2.40;;;23.90;99.90;;;;;;5030561;28;20596;-56
2023/07/01 11:59:03;;;;;;;11.67;2.03;;;23.80;99.90;;;;;;5030585;28;20510;-52
2023/07/01 12:01:30;;;;;;;6.27;2.30;;;23.70;99.90;;;;;;5030925;28;20458;-52
2023/07/01 12:03:56;;;;;;;5.80;2.80;;;23.70;99.90;;;;;;5031328;28;20463;-52
2023/07/01 12:06:25;;;;;;;2.43;2.33;;;23.70;99.90;;;;;;5029606;28;20470;-57
2023/07/01 12:08:54;;;;;;;6.77;2.53;;;23.60;99.90;;;;;;5030293;28;20517;-51
2023/07/01 12:11:21;;;;;;;3.53;2.53;;;23.60;99.90;;;;;;5029849;28;20491;-52
2023/07/01 12:13:49;;;;;;;8.07;1.90;;;23.80;99.90;;;;;;5031798;28;20498;-52
2023/07/01 12:16:16;;;;;;;4.90;2.80;;;23.80;99.90;;;;;;5029986;28;20463;-50
2023/07/01 12:18:42;;;;;;;9.10;1.97;;;23.80;99.90;;;;;;5030777;28;20514;-52
2023/07/01 12:21:10;;;;;;;5.90;2.57;;;23.50;99.90;;;;;;5028046;28;20541;-51
2023/07/01 12:23:43;;;;;;;5.70;2.57;;;23.40;99.90;;;;;;5029783;28;20494;-51
2023/07/01 12:26:10;;;;;;;5.67;2.00;;;23.30;99.90;;;;;;5029541;28;20883;-53
2023/07/01 12:28:38;;;;;;;8.37;2.30;;;23.20;99.90;;;;;;5024595;28;21998;-52
2023/07/01 12:31:08;;;;;;;6.37;2.50;;;23.20;99.90;;;;;;5032865;28;20549;-52
2023/07/01 12:33:35;;;;;;;2.60;2.27;;;23.10;99.90;;;;;;5030529;28;20557;-52
2023/07/01 12:36:02;;;;;;;5.03;2.20;;;23.10;99.90;;;;;;5020780;28;20557;-51
2023/07/01 12:38:29;;;;;;;2.10;1.90;;;23.10;99.90;;;;;;5023918;28;20514;-52
2023/07/01 12:40:57;;;;;;;5.50;2.30;;;23.20;99.90;;;;;;5031681;28;20457;-51
2023/07/01 12:43:27;;;;;;;9.93;2.80;;;23.20;99.90;;;;;;5023673;28;21128;-53
2023/07/01 12:45:54;;;;;;;6.70;2.93;;;23.30;99.90;;;;;;5028441;28;20462;-52
2023/07/01 12:48:22;;;;;;;13.47;2.20;;;23.20;99.90;;;;;;5031298;28;20469;-51